createdAt,value
2022-12-28T00:00:30.445Z,1013.94
2022-12-28T00:03:03.350Z,1013.94
2022-12-28T00:05:36.480Z,1013.94
2022-12-28T00:08:09.587Z,1013.94
2022-12-28T00:11:08.065Z,1013.94
2022-12-28T00:13:16.445Z,1013.93
2022-12-28T00:15:49.524Z,1013.89
2022-12-28T00:18:22.559Z,1013.85
2022-12-28T00:20:55.552Z,1013.82
2022-12-28T00:23:28.435Z,1013.77
2022-12-28T00:26:01.595Z,1013.72
2022-12-28T00:28:34.463Z,1013.69
2022-12-28T00:31:07.508Z,1013.65
2022-12-28T00:33:40.593Z,1013.62
2022-12-28T00:36:13.492Z,1013.59
2022-12-28T00:38:46.586Z,1013.54
2022-12-28T00:41:19.513Z,1013.47
2022-12-28T00:43:52.607Z,1013.42
2022-12-28T00:46:25.538Z,1013.36
2022-12-28T00:48:58.598Z,1013.30
2022-12-28T00:51:31.478Z,1013.27
2022-12-28T00:54:04.524Z,1013.23
2022-12-28T00:56:37.522Z,1013.18
2022-12-28T00:59:10.586Z,1013.12
2022-12-28T01:01:43.711Z,1013.06
2022-12-28T01:04:16.492Z,1013.00
2022-12-28T01:06:49.617Z,1012.93
2022-12-28T01:09:22.548Z,1012.86
2022-12-28T01:11:55.637Z,1012.78
2022-12-28T01:14:28.598Z,1012.72
2022-12-28T01:17:01.551Z,1012.65
2022-12-28T01:19:34.552Z,1012.60
2022-12-28T01:22:07.579Z,1012.56
2022-12-28T01:24:40.642Z,1012.53
2022-12-28T01:27:13.613Z,1012.51
2022-12-28T01:29:46.686Z,1012.45
2022-12-28T01:32:19.637Z,1012.41
2022-12-28T01:34:52.581Z,1012.37
2022-12-28T01:37:25.671Z,1012.32
2022-12-28T01:39:58.671Z,1012.26
2022-12-28T01:42:31.662Z,1012.22
2022-12-28T01:45:04.707Z,1012.18
2022-12-28T01:47:37.417Z,1012.15
2022-12-28T01:50:10.607Z,1012.11
2022-12-28T01:52:43.650Z,1012.07
2022-12-28T01:55:16.556Z,1012.05
2022-12-28T01:57:49.580Z,1012.02
2022-12-28T02:00:22.696Z,1011.99
2022-12-28T02:02:55.700Z,1011.96
2022-12-28T02:05:28.604Z,1011.92
2022-12-28T02:08:01.721Z,1011.88
2022-12-28T02:10:41.475Z,1011.81
2022-12-28T02:13:07.761Z,1011.74
2022-12-28T02:15:40.696Z,1011.71
2022-12-28T02:18:13.595Z,1011.73
2022-12-28T02:20:46.623Z,1011.77
2022-12-28T02:23:19.614Z,1011.79
2022-12-28T02:25:52.658Z,1011.78
2022-12-28T02:28:25.603Z,1011.77
2022-12-28T02:30:58.724Z,1011.77
2022-12-28T02:33:31.689Z,1011.75
2022-12-28T02:36:04.371Z,1011.72
2022-12-28T02:38:37.752Z,1011.70
2022-12-28T02:41:10.648Z,1011.70
2022-12-28T02:43:43.736Z,1011.69
2022-12-28T02:46:16.796Z,1011.67
2022-12-28T02:48:49.772Z,1011.64
2022-12-28T02:51:22.736Z,1011.62
2022-12-28T02:53:55.656Z,1011.60
2022-12-28T02:56:28.685Z,1011.58
2022-12-28T02:59:01.936Z,1011.57
2022-12-28T03:01:35.935Z,1011.52
2022-12-28T03:04:08.730Z,1011.47
2022-12-28T03:06:44.688Z,1011.45
2022-12-28T03:09:17.761Z,1011.42
2022-12-28T03:11:50.756Z,1011.39
2022-12-28T03:14:23.866Z,1011.36
2022-12-28T03:16:56.842Z,1011.34
2022-12-28T03:19:29.830Z,1011.32
2022-12-28T03:22:02.716Z,1011.30
2022-12-28T03:24:35.850Z,1011.26
2022-12-28T03:27:08.818Z,1011.21
2022-12-28T03:29:41.860Z,1011.17
2022-12-28T03:32:14.756Z,1011.13
2022-12-28T03:34:47.729Z,1011.10
2022-12-28T03:37:20.891Z,1011.09
2022-12-28T03:39:54.704Z,1011.05
2022-12-28T03:42:27.846Z,1011.02
2022-12-28T03:45:00.833Z,1010.98
2022-12-28T03:47:33.811Z,1010.94
2022-12-28T03:50:06.855Z,1010.91
2022-12-28T03:52:39.762Z,1010.87
2022-12-28T03:55:12.753Z,1010.81
2022-12-28T03:57:45.795Z,1010.75
2022-12-28T04:00:18.912Z,1010.69
2022-12-28T04:02:51.993Z,1010.64
2022-12-28T04:05:24.906Z,1010.61
2022-12-28T04:07:57.834Z,1010.56
2022-12-28T04:10:30.899Z,1010.52
2022-12-28T04:13:03.844Z,1010.49
2022-12-28T04:15:36.981Z,1010.44
2022-12-28T04:18:09.949Z,1010.40
2022-12-28T04:20:42.627Z,1010.34
2022-12-28T04:23:15.885Z,1010.30
2022-12-28T04:25:48.930Z,1010.30
2022-12-28T04:28:21.869Z,1010.30
2022-12-28T04:30:54.939Z,1010.29
2022-12-28T04:33:27.966Z,1010.31
2022-12-28T04:36:00.969Z,1010.30
2022-12-28T04:38:34.079Z,1010.31
2022-12-28T04:41:07.950Z,1010.30
2022-12-28T04:43:40.959Z,1010.29
2022-12-28T04:46:13.939Z,1010.26
2022-12-28T04:48:46.980Z,1010.23
2022-12-28T04:51:19.903Z,1010.21
2022-12-28T04:53:52.981Z,1010.20
2022-12-28T04:56:25.953Z,1010.19
2022-12-28T04:58:58.585Z,1010.18
2022-12-28T05:01:32.289Z,1010.18
2022-12-28T05:04:05.067Z,1010.20
2022-12-28T05:06:37.990Z,1010.20
2022-12-28T05:09:10.894Z,1010.21
2022-12-28T05:11:44.001Z,1010.18
2022-12-28T05:14:16.894Z,1010.18
2022-12-28T05:16:50.028Z,1010.14
2022-12-28T05:19:22.936Z,1010.12
2022-12-28T05:21:56.002Z,1010.10
2022-12-28T05:24:28.972Z,1010.08
2022-12-28T05:27:02.020Z,1010.04
2022-12-28T05:29:35.018Z,1010.00
2022-12-28T05:32:08.007Z,1009.98
2022-12-28T05:34:41.047Z,1009.95
2022-12-28T05:37:20.138Z,1009.91
2022-12-28T05:39:46.910Z,1009.89
2022-12-28T05:42:20.027Z,1009.86
2022-12-28T05:45:06.991Z,1009.84
2022-12-28T05:47:39.961Z,1009.83
2022-12-28T05:50:12.680Z,1009.78
2022-12-28T05:52:45.951Z,1009.75
2022-12-28T05:55:19.021Z,1009.72
2022-12-28T05:57:51.975Z,1009.68
2022-12-28T06:00:25.070Z,1009.65
2022-12-28T06:02:58.164Z,1009.64
2022-12-28T06:05:31.108Z,1009.63
2022-12-28T06:08:03.947Z,1009.62
2022-12-28T06:10:37.081Z,1009.60
2022-12-28T06:13:10.011Z,1009.59
2022-12-28T06:15:43.009Z,1009.60
2022-12-28T06:18:16.014Z,1009.59
2022-12-28T06:20:53.735Z,1009.55
2022-12-28T06:23:22.106Z,1009.51
2022-12-28T06:25:55.076Z,1009.48
2022-12-28T06:28:28.104Z,1009.45
2022-12-28T06:31:01.083Z,1009.43
2022-12-28T06:33:34.051Z,1009.43
2022-12-28T06:36:07.034Z,1009.42
2022-12-28T06:38:40.094Z,1009.40
2022-12-28T06:41:14.493Z,1009.39
2022-12-28T06:43:46.127Z,1009.36
2022-12-28T06:46:19.219Z,1009.35
2022-12-28T06:48:52.134Z,1009.35
2022-12-28T06:51:25.072Z,1009.34
2022-12-28T06:53:58.189Z,1009.34
2022-12-28T06:56:31.103Z,1009.33
2022-12-28T06:59:04.704Z,1009.33
2022-12-28T07:01:37.184Z,1009.33
2022-12-28T07:04:10.067Z,1009.31
2022-12-28T07:06:43.124Z,1009.30
2022-12-28T07:09:16.100Z,1009.29
2022-12-28T07:11:49.075Z,1009.29
2022-12-28T07:14:22.150Z,1009.30
2022-12-28T07:16:55.102Z,1009.31
2022-12-28T07:19:28.179Z,1009.31
2022-12-28T07:22:01.093Z,1009.29
2022-12-28T07:24:34.185Z,1009.28
2022-12-28T07:27:07.159Z,1009.26
2022-12-28T07:29:40.188Z,1009.25
2022-12-28T07:32:13.160Z,1009.21
2022-12-28T07:34:46.108Z,1009.19
2022-12-28T07:37:19.289Z,1009.18
2022-12-28T07:39:53.150Z,1009.15
2022-12-28T07:42:26.203Z,1009.14
2022-12-28T07:44:59.186Z,1009.13
2022-12-28T07:47:31.814Z,1009.12
2022-12-28T07:50:05.205Z,1009.10
2022-12-28T07:52:52.126Z,1009.08
2022-12-28T07:55:25.134Z,1009.03
2022-12-28T07:58:01.176Z,1008.99
2022-12-28T08:00:33.863Z,1008.95
2022-12-28T08:03:07.346Z,1008.93
2022-12-28T08:05:40.155Z,1008.89
2022-12-28T08:08:13.180Z,1008.86
2022-12-28T08:10:46.037Z,1008.84
2022-12-28T08:13:19.264Z,1008.83
2022-12-28T08:15:52.129Z,1008.81
2022-12-28T08:18:24.978Z,1008.79
2022-12-28T08:20:57.923Z,1008.77
2022-12-28T08:23:31.255Z,1008.74
2022-12-28T08:26:04.282Z,1008.72
2022-12-28T08:28:37.240Z,1008.73
2022-12-28T08:31:09.962Z,1008.74
2022-12-28T08:33:43.107Z,1008.75
2022-12-28T08:36:15.917Z,1008.75
2022-12-28T08:38:49.004Z,1008.76
2022-12-28T08:41:22.102Z,1008.75
2022-12-28T08:43:55.311Z,1008.74
2022-12-28T08:46:28.404Z,1008.75
2022-12-28T08:49:01.227Z,1008.76
2022-12-28T08:51:34.325Z,1008.77
2022-12-28T08:54:07.248Z,1008.77
2022-12-28T08:56:40.320Z,1008.78
2022-12-28T08:59:13.239Z,1008.78
2022-12-28T09:01:46.394Z,1008.80
2022-12-28T09:04:19.219Z,1008.80
2022-12-28T09:06:52.294Z,1008.79
2022-12-28T09:09:25.391Z,1008.78
2022-12-28T09:11:58.330Z,1008.79
2022-12-28T09:14:31.113Z,1008.77
2022-12-28T09:17:04.259Z,1008.77
2022-12-28T09:19:37.411Z,1008.76
2022-12-28T09:22:10.254Z,1008.75
2022-12-28T09:24:43.316Z,1008.73
2022-12-28T09:27:16.290Z,1008.71
2022-12-28T09:29:49.307Z,1008.70
2022-12-28T09:32:22.059Z,1008.68
2022-12-28T09:34:55.246Z,1008.65
2022-12-28T09:37:28.357Z,1008.63
2022-12-28T09:40:01.977Z,1008.61
2022-12-28T09:42:34.371Z,1008.58
2022-12-28T09:45:07.352Z,1008.55
2022-12-28T09:47:40.296Z,1008.52
2022-12-28T09:50:13.048Z,1008.48
2022-12-28T09:52:50.020Z,1008.47
2022-12-28T09:55:22.066Z,1008.46
2022-12-28T09:57:55.472Z,1008.44
2022-12-28T10:00:29.321Z,1008.44
2022-12-28T10:03:02.481Z,1008.43
2022-12-28T10:05:35.397Z,1008.43
2022-12-28T10:08:08.398Z,1008.42
2022-12-28T10:10:46.710Z,1008.41
2022-12-28T10:13:45.634Z,1008.40
2022-12-28T10:15:47.392Z,1008.40
2022-12-28T10:18:20.345Z,1008.38
2022-12-28T10:20:53.136Z,1008.35
2022-12-28T10:23:26.288Z,1008.33
2022-12-28T10:25:59.395Z,1008.31
2022-12-28T10:28:32.471Z,1008.26
2022-12-28T10:31:05.408Z,1008.23
2022-12-28T10:33:38.370Z,1008.20
2022-12-28T10:36:11.507Z,1008.17
2022-12-28T10:38:44.368Z,1008.13
2022-12-28T10:41:17.411Z,1008.12
2022-12-28T10:44:08.631Z,1008.08
2022-12-28T10:46:23.434Z,1008.04
2022-12-28T10:48:56.413Z,1008.01
2022-12-28T10:51:29.490Z,1007.99
2022-12-28T10:54:02.282Z,1007.97
2022-12-28T10:56:35.316Z,1007.94
2022-12-28T10:59:08.255Z,1007.91
2022-12-28T11:01:41.806Z,1007.86
2022-12-28T11:04:20.489Z,1007.82
2022-12-28T11:06:53.450Z,1007.78
2022-12-28T11:09:26.528Z,1007.74
2022-12-28T11:11:59.558Z,1007.69
2022-12-28T11:14:32.529Z,1007.64
2022-12-28T11:17:05.429Z,1007.59
2022-12-28T11:19:38.290Z,1007.55
2022-12-28T11:22:11.482Z,1007.52
2022-12-28T11:24:44.544Z,1007.47
2022-12-28T11:27:17.495Z,1007.43
2022-12-28T11:29:50.466Z,1007.39
2022-12-28T11:32:23.478Z,1007.35
2022-12-28T11:34:56.551Z,1007.34
2022-12-28T11:37:29.345Z,1007.30
2022-12-28T11:40:02.589Z,1007.26
2022-12-28T11:42:40.355Z,1007.21
2022-12-28T11:45:08.525Z,1007.17
2022-12-28T11:47:41.222Z,1007.12
2022-12-28T11:50:14.204Z,1007.10
2022-12-28T11:52:47.311Z,1007.08
2022-12-28T11:55:20.392Z,1007.07
2022-12-28T11:57:53.602Z,1007.08
2022-12-28T12:00:26.473Z,1007.07
2022-12-28T12:02:59.286Z,1007.06
2022-12-28T12:05:32.235Z,1007.04
2022-12-28T12:08:05.346Z,1007.01
2022-12-28T12:10:38.409Z,1006.96
2022-12-28T12:13:11.288Z,1006.92
2022-12-28T12:15:44.444Z,1006.82
2022-12-28T12:18:17.439Z,1006.76
2022-12-28T12:20:50.238Z,1006.70
2022-12-28T12:23:23.577Z,1006.65
2022-12-28T12:25:56.254Z,1006.61
2022-12-28T12:28:29.348Z,1006.56
2022-12-28T12:31:02.363Z,1006.51
2022-12-28T12:33:35.633Z,1006.46
2022-12-28T12:36:08.599Z,1006.43
2022-12-28T12:38:41.564Z,1006.39
2022-12-28T12:41:14.657Z,1006.33
2022-12-28T12:43:47.489Z,1006.30
2022-12-28T12:46:20.692Z,1006.28
2022-12-28T12:48:53.688Z,1006.24
2022-12-28T12:51:26.438Z,1006.22
2022-12-28T12:53:59.307Z,1006.20
2022-12-28T12:56:32.519Z,1006.17
2022-12-28T12:59:05.437Z,1006.13
2022-12-28T13:01:38.566Z,1006.09
2022-12-28T13:04:11.380Z,1006.08
2022-12-28T13:06:44.323Z,1006.05
2022-12-28T13:09:20.211Z,1006.01
2022-12-28T13:11:53.337Z,1005.98
2022-12-28T13:14:26.655Z,1005.95
2022-12-28T13:16:59.681Z,1005.94
2022-12-28T13:19:32.725Z,1005.91
2022-12-28T13:22:05.486Z,1005.88
2022-12-28T13:24:38.463Z,1005.86
2022-12-28T13:27:12.702Z,1005.84
2022-12-28T13:29:44.414Z,1005.81
2022-12-28T13:32:17.365Z,1005.77
2022-12-28T13:34:50.640Z,1005.75
2022-12-28T13:37:23.422Z,1005.69
2022-12-28T13:39:56.679Z,1005.67
2022-12-28T13:42:29.553Z,1005.63
2022-12-28T13:45:02.664Z,1005.59
2022-12-28T13:47:35.506Z,1005.55
2022-12-28T13:50:08.571Z,1005.52
2022-12-28T13:52:41.577Z,1005.50
2022-12-28T13:55:14.421Z,1005.46
2022-12-28T13:57:51.288Z,1005.42
2022-12-28T14:00:20.651Z,1005.40
2022-12-28T14:02:53.610Z,1005.38
2022-12-28T14:05:29.425Z,1005.35
2022-12-28T14:08:02.545Z,1005.32
2022-12-28T14:10:35.539Z,1005.28
2022-12-28T14:13:08.422Z,1005.24
2022-12-28T14:15:41.774Z,1005.20
2022-12-28T14:18:14.438Z,1005.17
2022-12-28T14:20:47.416Z,1005.15
2022-12-28T14:23:20.691Z,1005.14
2022-12-28T14:25:53.700Z,1005.10
2022-12-28T14:28:26.766Z,1005.07
2022-12-28T14:30:59.828Z,1005.03
2022-12-28T14:33:32.822Z,1005.02
2022-12-28T14:36:05.644Z,1005.00
2022-12-28T14:38:38.815Z,1004.98
2022-12-28T14:41:11.771Z,1004.93
2022-12-28T14:43:44.864Z,1004.90
2022-12-28T14:46:17.940Z,1004.90
2022-12-28T14:48:50.775Z,1004.87
2022-12-28T14:51:23.943Z,1004.84
2022-12-28T14:53:57.855Z,1004.83
2022-12-28T14:56:30.593Z,1004.83
2022-12-28T14:59:03.908Z,1004.80
2022-12-28T15:01:36.952Z,1004.78
2022-12-28T15:04:09.501Z,1004.76
2022-12-28T15:06:42.888Z,1004.75
2022-12-28T15:09:15.748Z,1004.73
2022-12-28T15:11:48.856Z,1004.71
2022-12-28T15:14:21.620Z,1004.71
2022-12-28T15:16:54.796Z,1004.71
2022-12-28T15:19:27.831Z,1004.68
2022-12-28T15:22:00.903Z,1004.68
2022-12-28T15:24:34.595Z,1004.69
2022-12-28T15:27:06.744Z,1004.66
2022-12-28T15:30:04.170Z,1004.62
2022-12-28T15:32:12.746Z,1004.61
2022-12-28T15:34:45.903Z,1004.60
2022-12-28T15:37:18.826Z,1004.61
2022-12-28T15:39:51.934Z,1004.60
2022-12-28T15:42:24.900Z,1004.58
2022-12-28T15:44:57.960Z,1004.56
2022-12-28T15:47:30.886Z,1004.54
2022-12-28T15:50:04.077Z,1004.51
2022-12-28T15:52:37.829Z,1004.48
2022-12-28T15:55:10.835Z,1004.45
2022-12-28T15:57:43.961Z,1004.41
2022-12-28T16:00:16.560Z,1004.36
2022-12-28T16:02:49.805Z,1004.32
2022-12-28T16:05:22.866Z,1004.28
2022-12-28T16:07:55.896Z,1004.24
2022-12-28T16:10:28.876Z,1004.20
2022-12-28T16:13:01.694Z,1004.17
2022-12-28T16:15:34.636Z,1004.15
2022-12-28T16:18:07.811Z,1004.11
2022-12-28T16:20:40.749Z,1004.09
2022-12-28T16:23:13.657Z,1004.07
2022-12-28T16:25:46.608Z,1004.07
2022-12-28T16:28:19.628Z,1004.05
2022-12-28T16:30:52.850Z,1004.05
2022-12-28T16:33:25.963Z,1004.04
2022-12-28T16:35:59.899Z,1004.02
2022-12-28T16:38:31.919Z,1004.02
2022-12-28T16:41:04.698Z,1004.01
2022-12-28T16:43:38.045Z,1004.00
2022-12-28T16:46:10.713Z,1003.99
2022-12-28T16:48:44.036Z,1003.99
2022-12-28T16:51:16.661Z,1004.00
2022-12-28T16:53:49.660Z,1004.01
2022-12-28T16:56:22.963Z,1004.00
2022-12-28T16:58:56.121Z,1004.00
2022-12-28T17:01:29.807Z,1004.01
2022-12-28T17:04:04.298Z,1004.00
2022-12-28T17:06:36.083Z,1004.01
2022-12-28T17:09:09.173Z,1004.03
2022-12-28T17:11:43.027Z,1004.02
2022-12-28T17:14:29.184Z,1004.01
2022-12-28T17:16:49.015Z,1004.01
2022-12-28T17:19:21.967Z,1003.97
2022-12-28T17:21:54.918Z,1003.95
2022-12-28T17:24:28.081Z,1003.91
2022-12-28T17:27:07.266Z,1003.88
2022-12-28T17:29:33.831Z,1003.83
2022-12-28T17:32:07.130Z,1003.77
2022-12-28T17:34:40.097Z,1003.71
2022-12-28T17:37:12.890Z,1003.67
2022-12-28T17:39:45.738Z,1003.64
2022-12-28T17:42:18.729Z,1003.58
2022-12-28T17:44:51.902Z,1003.54
2022-12-28T17:47:24.735Z,1003.50
2022-12-28T17:49:58.095Z,1003.47
2022-12-28T17:52:30.906Z,1003.45
2022-12-28T17:55:03.941Z,1003.40
2022-12-28T17:57:38.734Z,1003.37
2022-12-28T18:00:09.774Z,1003.33
2022-12-28T18:02:43.122Z,1003.29
2022-12-28T18:05:16.176Z,1003.24
2022-12-28T18:07:49.056Z,1003.19
2022-12-28T18:10:21.951Z,1003.14
2022-12-28T18:12:54.759Z,1003.08
2022-12-28T18:15:32.931Z,1003.03
2022-12-28T18:18:01.075Z,1002.99
2022-12-28T18:20:33.924Z,1002.93
2022-12-28T18:23:06.961Z,1002.88
2022-12-28T18:25:39.984Z,1002.82
2022-12-28T18:28:12.822Z,1002.77
2022-12-28T18:30:45.879Z,1002.70
2022-12-28T18:33:19.199Z,1002.64
2022-12-28T18:35:51.838Z,1002.59
2022-12-28T18:38:24.803Z,1002.56
2022-12-28T18:40:58.108Z,1002.53
2022-12-28T18:43:30.818Z,1002.49
2022-12-28T18:46:03.902Z,1002.46
2022-12-28T18:48:37.246Z,1002.42
2022-12-28T18:51:10.120Z,1002.40
2022-12-28T18:53:43.194Z,1002.38
2022-12-28T18:56:15.842Z,1002.37
2022-12-28T18:58:49.010Z,1002.34
2022-12-28T19:03:55.502Z,1002.29
2022-12-28T19:06:28.081Z,1002.26
2022-12-28T19:09:01.002Z,1002.26
2022-12-28T19:11:33.979Z,1002.23
2022-12-28T19:14:07.044Z,1002.21
2022-12-28T19:16:39.976Z,1002.18
2022-12-28T19:19:12.889Z,1002.17
2022-12-28T19:21:45.915Z,1002.10
2022-12-28T19:24:19.014Z,1002.05
2022-12-28T19:26:52.064Z,1002.04
2022-12-28T19:29:24.916Z,1002.00
2022-12-28T19:31:58.360Z,1001.97
2022-12-28T19:34:31.085Z,1001.94
2022-12-28T19:37:03.997Z,1001.91
2022-12-28T19:39:36.910Z,1001.88
2022-12-28T19:42:09.916Z,1001.87
2022-12-28T19:44:42.909Z,1001.85
2022-12-28T19:47:16.174Z,1001.86
2022-12-28T19:49:49.196Z,1001.85
2022-12-28T19:52:21.957Z,1001.84
2022-12-28T19:54:55.200Z,1001.80
2022-12-28T19:57:28.316Z,1001.75
2022-12-28T20:00:01.090Z,1001.72
2022-12-28T20:02:34.548Z,1001.70
2022-12-28T20:05:06.971Z,1001.67
2022-12-28T20:07:40.240Z,1001.65
2022-12-28T20:10:12.947Z,1001.59
2022-12-28T20:12:46.354Z,1001.56
2022-12-28T20:15:18.966Z,1001.54
2022-12-28T20:17:52.107Z,1001.51
2022-12-28T20:20:27.493Z,1001.46
2022-12-28T20:22:57.967Z,1001.43
2022-12-28T20:25:31.383Z,1001.39
2022-12-28T20:28:04.125Z,1001.36
2022-12-28T20:30:36.960Z,1001.32
2022-12-28T20:33:10.013Z,1001.28
2022-12-28T20:35:43.308Z,1001.23
2022-12-28T20:38:16.018Z,1001.18
2022-12-28T20:40:49.175Z,1001.16
2022-12-28T20:43:22.360Z,1001.13
2022-12-28T20:45:55.308Z,1001.11
2022-12-28T20:48:28.284Z,1001.09
2022-12-28T20:51:04.270Z,1001.06
2022-12-28T20:53:37.023Z,1001.05
2022-12-28T20:56:10.327Z,1001.01
2022-12-28T20:58:43.301Z,1000.99
2022-12-28T21:01:16.465Z,1000.96
2022-12-28T21:03:49.331Z,1000.93
2022-12-28T21:06:22.318Z,1000.88
2022-12-28T21:08:55.361Z,1000.86
2022-12-28T21:11:28.443Z,1000.84
2022-12-28T21:14:01.523Z,1000.83
2022-12-28T21:16:38.356Z,1000.82
2022-12-28T21:19:11.358Z,1000.81
2022-12-28T21:21:44.326Z,1000.80
2022-12-28T21:24:17.063Z,1000.80
2022-12-28T21:26:50.343Z,1000.79
2022-12-28T21:29:25.987Z,1000.80
2022-12-28T21:31:56.179Z,1000.78
2022-12-28T21:34:29.078Z,1000.76
2022-12-28T21:37:02.457Z,1000.75
2022-12-28T21:39:35.357Z,1000.73
2022-12-28T21:42:08.086Z,1000.71
2022-12-28T21:44:41.184Z,1000.67
2022-12-28T21:47:14.105Z,1000.64
2022-12-28T21:49:47.388Z,1000.63
2022-12-28T21:52:20.373Z,1000.59
2022-12-28T21:54:53.473Z,1000.57
2022-12-28T21:57:26.237Z,1000.54
2022-12-28T22:00:01.708Z,1000.52
2022-12-28T22:02:32.528Z,1000.51
2022-12-28T22:05:05.236Z,1000.52
2022-12-28T22:07:38.100Z,1000.51
2022-12-28T22:10:11.157Z,1000.51
2022-12-28T22:12:44.122Z,1000.54
2022-12-28T22:15:17.485Z,1000.55
2022-12-28T22:17:50.409Z,1000.54
2022-12-28T22:20:23.553Z,1000.53
2022-12-28T22:22:56.333Z,1000.53
2022-12-28T22:25:29.379Z,1000.53
2022-12-28T22:28:02.448Z,1000.52
2022-12-28T22:30:35.160Z,1000.49
2022-12-28T22:33:08.285Z,1000.50
2022-12-28T22:35:41.544Z,1000.47
2022-12-28T22:38:14.413Z,1000.46
2022-12-28T22:40:47.327Z,1000.45
2022-12-28T22:43:20.562Z,1000.40
2022-12-28T22:45:53.230Z,1000.37
2022-12-28T22:48:26.337Z,1000.36
2022-12-28T22:50:59.370Z,1000.36
2022-12-28T22:53:32.391Z,1000.37
2022-12-28T22:56:05.431Z,1000.35
2022-12-28T22:58:38.314Z,1000.33
2022-12-28T23:01:11.642Z,1000.33
2022-12-28T23:03:44.509Z,1000.29
2022-12-28T23:06:17.194Z,1000.27
2022-12-28T23:08:50.504Z,1000.29
2022-12-28T23:11:23.605Z,1000.28
2022-12-28T23:13:56.541Z,1000.28
2022-12-28T23:16:29.724Z,1000.28
2022-12-28T23:19:02.585Z,1000.27
2022-12-28T23:21:35.296Z,1000.25
2022-12-28T23:24:08.604Z,1000.23
2022-12-28T23:26:41.639Z,1000.23
2022-12-28T23:29:14.507Z,1000.19
2022-12-28T23:31:47.606Z,1000.17
2022-12-28T23:34:20.586Z,1000.14
2022-12-28T23:36:53.652Z,1000.09
2022-12-28T23:39:26.560Z,1000.07
2022-12-28T23:41:59.680Z,1000.04
2022-12-28T23:44:32.584Z,1000.00
2022-12-28T23:47:05.561Z,999.95
2022-12-28T23:49:52.630Z,999.92
2022-12-28T23:52:26.143Z,999.88
2022-12-28T23:54:58.641Z,999.84
2022-12-28T23:57:31.706Z,999.82
